Time;durP1;ratioP1;P1;durP2;ratioP2;P2;SDS_P1;SDS_P2;PMS_P1;PMS_P2;Temp;Humidity;BMP_temperature;BMP_pressure;BME280_temperature;BME280_humidity;BME280_pressure;Samples;Min_cycle;Max_cycle;Signal;HPM_P1;HPM_P2
2023/01/21 00:01:28;;;;;;;;;;;;;;;2.41;100.00;98188.56;5123496;28;19930;-60
2023/01/21 00:03:55;;;;;;;;;;;;;;;2.77;100.00;98186.28;5121633;28;19979;-60
2023/01/21 00:06:21;;;;;;;;;;;;;;;2.64;100.00;98200.31;5113106;28;19970;-60
2023/01/21 00:08:47;;;;;;;;;;;;;;;2.22;100.00;98198.13;5120074;28;19987;-60
2023/01/21 00:11:15;;;;;;;;;;;;;;;2.51;100.00;98196.84;5123241;28;19934;-60
2023/01/21 00:13:42;;;;;;;;;;;;;;;2.23;100.00;98202.34;5122772;28;19924;-60
2023/01/21 00:16:09;;;;;;;;;;;;;;;2.57;100.00;98198.69;5119319;28;19942;-60
2023/01/21 00:18:35;;;;;;;;;;;;;;;2.45;100.00;98197.69;5101156;28;19964;-60
2023/01/21 00:21:02;;;;;;;;;;;;;;;2.67;100.00;98188.53;5122141;28;19924;-60
2023/01/21 00:23:28;;;;;;;;;;;;;;;2.54;100.00;98197.25;5122637;28;19955;-60
2023/01/21 00:25:58;;;;;;;;;;;;;;;2.51;100.00;98191.59;5120965;28;20454;-60
2023/01/21 00:28:27;;;;;;;;;;;;;;;2.36;100.00;98193.63;5118141;28;19952;-60
2023/01/21 00:30:56;;;;;;;;;;;;;;;3.03;100.00;98186.19;5120620;28;20572;-60
2023/01/21 00:33:22;;;;;;;;;;;;;;;2.48;100.00;98186.72;5122588;28;19979;-60
2023/01/21 00:35:56;;;;;;;;;;;;;;;2.69;100.00;98194.44;5114787;28;19954;-60
2023/01/21 00:38:22;;;;;;;;;;;;;;;2.37;100.00;98195.25;5119049;28;19962;-60
2023/01/21 00:40:48;;;;;;;;;;;;;;;1.95;100.00;98201.75;5119813;28;19992;-60
2023/01/21 00:43:15;;;;;;;;;;;;;;;2.03;100.00;98194.47;5122418;28;19991;-60
2023/01/21 00:45:42;;;;;;;;;;;;;;;2.05;100.00;98195.06;5122310;28;20015;-61
2023/01/21 00:48:09;;;;;;;;;;;;;;;2.64;100.00;98189.75;5110235;28;19966;-60
2023/01/21 00:50:35;;;;;;;;;;;;;;;2.80;100.00;98192.97;5110308;28;19931;-60
2023/01/21 00:53:01;;;;;;;;;;;;;;;2.96;100.00;98203.91;5109915;28;19928;-60
2023/01/21 00:55:28;;;;;;;;;;;;;;;1.98;100.00;98201.34;5109892;28;20006;-60
2023/01/21 00:57:55;;;;;;;;;;;;;;;2.63;100.00;98203.16;5109946;28;19983;-60
2023/01/21 01:00:21;;;;;;;;;;;;;;;2.58;100.00;98197.66;5110186;28;19923;-60
2023/01/21 01:02:49;;;;;;;;;;;;;;;2.32;100.00;98202.97;5110225;28;19952;-61
2023/01/21 01:05:15;;;;;;;;;;;;;;;1.54;100.00;98207.13;5112181;28;19931;-61
2023/01/21 01:07:44;;;;;;;;;;;;;;;1.56;100.00;98213.00;5118838;28;20015;-60
2023/01/21 01:10:11;;;;;;;;;;;;;;;1.95;100.00;98207.81;5110372;28;19924;-60
2023/01/21 01:12:37;;;;;;;;;;;;;;;1.71;100.00;98204.91;5110324;28;19935;-60
2023/01/21 01:15:04;;;;;;;;;;;;;;;1.59;100.00;98212.59;5110152;28;19928;-60
2023/01/21 01:17:30;;;;;;;;;;;;;;;1.85;100.00;98217.94;5110137;28;19969;-60
2023/01/21 01:19:58;;;;;;;;;;;;;;;1.51;100.00;98213.59;5110213;28;19963;-61
2023/01/21 01:22:24;;;;;;;;;;;;;;;1.26;100.00;98223.03;5110118;28;19991;-61
2023/01/21 01:24:51;;;;;;;;;;;;;;;1.12;100.00;98212.63;5110060;28;20616;-61
2023/01/21 01:27:17;;;;;;;;;;;;;;;1.35;100.00;98226.28;5110155;28;19924;-61
2023/01/21 01:29:43;;;;;;;;;;;;;;;1.35;100.00;98231.56;5110098;28;19924;-61
2023/01/21 01:32:10;;;;;;;;;;;;;;;1.25;100.00;98231.09;5110479;28;19924;-61
2023/01/21 01:34:37;;;;;;;;;;;;;;;1.06;100.00;98220.28;5111515;28;19955;-61
2023/01/21 01:37:04;;;;;;;;;;;;;;;0.91;100.00;98230.13;5113666;28;19927;-61
2023/01/21 01:39:31;;;;;;;;;;;;;;;0.78;100.00;98230.03;5123852;28;20389;-61
2023/01/21 01:41:58;;;;;;;;;;;;;;;1.25;100.00;98226.66;5124188;28;19930;-60
2023/01/21 01:44:42;;;;;;;;;;;;;;;1.78;100.00;98222.38;5122855;28;19947;-60
2023/01/21 01:47:09;;;;;;;;;;;;;;;1.18;100.00;98227.66;5122754;28;19960;-61
2023/01/21 01:49:35;;;;;;;;;;;;;;;0.91;100.00;98235.38;5122905;28;19924;-61
2023/01/21 01:52:04;;;;;;;;;;;;;;;0.88;100.00;98227.06;5125322;28;19951;-61
2023/01/21 01:54:35;;;;;;;;;;;;;;;0.88;100.00;98235.78;5126112;28;19923;-61
2023/01/21 01:57:02;;;;;;;;;;;;;;;1.12;100.00;98226.56;5123246;28;19983;-60
2023/01/21 01:59:30;;;;;;;;;;;;;;;1.01;100.00;98230.59;5122433;28;20004;-60
2023/01/21 02:01:57;;;;;;;;;;;;;;;1.91;100.00;98234.75;5124287;28;20381;-60
2023/01/21 02:04:26;;;;;;;;;;;;;;;1.87;100.00;98236.97;5125889;28;19955;-60
2023/01/21 02:06:54;;;;;;;;;;;;;;;1.31;100.00;98235.56;5127401;27;19963;-60
2023/01/21 02:09:20;;;;;;;;;;;;;;;0.93;100.00;98233.34;5125552;28;19958;-61
2023/01/21 02:11:48;;;;;;;;;;;;;;;1.17;100.00;98234.72;5124734;28;19924;-61
2023/01/21 02:14:15;;;;;;;;;;;;;;;1.00;100.00;98242.09;5122149;28;19924;-60
2023/01/21 02:16:47;;;;;;;;;;;;;;;1.14;100.00;98239.56;5122212;28;19963;-61
2023/01/21 02:19:28;;;;;;;;;;;;;;;1.76;100.00;98242.84;5113711;28;20028;-61
2023/01/21 02:22:01;;;;;;;;;;;;;;;1.27;100.00;98243.03;5113381;28;19924;-61
2023/01/21 02:24:39;;;;;;;;;;;;;;;0.99;100.00;98239.69;5113648;28;19979;-61
2023/01/21 02:27:21;;;;;;;;;;;;;;;1.09;100.00;98237.50;5113405;28;19928;-61
2023/01/21 02:29:53;;;;;;;;;;;;;;;1.09;100.00;98248.81;5113143;28;19931;-61
2023/01/21 02:32:44;;;;;;;;;;;;;;;1.61;100.00;98244.78;5113290;28;20010;-61
2023/01/21 02:35:14;;;;;;;;;;;;;;;1.52;100.00;98238.06;5088385;28;20012;-61
2023/01/21 02:37:45;;;;;;;;;;;;;;;1.43;100.00;98249.78;5121501;28;19959;-61
2023/01/21 02:40:14;;;;;;;;;;;;;;;1.84;100.00;98247.91;5121958;28;19952;-61
2023/01/21 02:42:44;;;;;;;;;;;;;;;2.00;100.00;98244.91;5121732;28;19947;-61
2023/01/21 02:45:15;;;;;;;;;;;;;;;1.31;100.00;98243.47;5121504;28;19920;-61
2023/01/21 02:47:47;;;;;;;;;;;;;;;1.67;100.00;98236.13;5121565;28;19924;-62
2023/01/21 02:50:18;;;;;;;;;;;;;;;1.97;100.00;98247.94;5103866;28;19978;-61
2023/01/21 02:52:44;;;;;;;;;;;;;;;2.52;100.00;98252.03;5121155;28;19955;-61
2023/01/21 02:55:13;;;;;;;;;;;;;;;1.90;100.00;98246.28;5124875;28;19987;-61
2023/01/21 02:57:41;;;;;;;;;;;;;;;2.04;100.00;98243.47;5124905;28;19930;-61
2023/01/21 03:00:10;;;;;;;;;;;;;;;2.45;100.00;98245.94;5112682;28;19925;-61
2023/01/21 03:03:00;;;;;;;;;;;;;;;2.24;100.00;98247.97;5112847;28;19951;-61
2023/01/21 03:05:34;;;;;;;;;;;;;;;2.36;100.00;98249.78;5122679;27;19928;-61
2023/01/21 03:08:05;;;;;;;;;;;;;;;2.78;100.00;98250.41;5122153;28;19920;-61
2023/01/21 03:10:33;;;;;;;;;;;;;;;3.16;100.00;98241.56;5121013;28;19991;-61
2023/01/21 03:13:01;;;;;;;;;;;;;;;3.07;100.00;98229.63;5123215;28;19928;-61
2023/01/21 03:18:30;;;;;;;;;;;;;;;3.30;100.00;98239.72;5058178;28;19925;-61
2023/01/21 03:21:01;;;;;;;;;;;;;;;3.50;100.00;98231.69;5108803;28;19959;-61
2023/01/21 03:23:29;;;;;;;;;;;;;;;3.28;100.00;98237.25;5124582;28;19966;-61
2023/01/21 03:25:57;;;;;;;;;;;;;;;3.39;100.00;98237.66;5122234;28;19958;-61
2023/01/21 03:28:26;;;;;;;;;;;;;;;3.50;100.00;98224.59;5120627;28;19991;-61
2023/01/21 03:30:54;;;;;;;;;;;;;;;3.69;100.00;98222.88;5121737;28;19979;-61
2023/01/21 03:33:21;;;;;;;;;;;;;;;3.78;100.00;98225.06;5105859;28;19959;-61
2023/01/21 03:35:48;;;;;;;;;;;;;;;3.23;100.00;98226.53;5116456;28;19978;-61
2023/01/21 03:38:21;;;;;;;;;;;;;;;3.58;100.00;98216.44;5120464;28;19983;-61
2023/01/21 03:40:52;;;;;;;;;;;;;;;3.75;100.00;98220.19;5120680;28;19996;-61
2023/01/21 03:43:18;;;;;;;;;;;;;;;3.68;100.00;98216.00;5123697;28;19934;-61
2023/01/21 03:45:49;;;;;;;;;;;;;;;3.59;100.00;98218.03;5123492;28;19979;-61
2023/01/21 03:48:19;;;;;;;;;;;;;;;3.67;100.00;98212.53;5120275;28;19956;-61
2023/01/21 03:50:49;;;;;;;;;;;;;;;3.69;100.00;98212.31;5120592;28;19959;-61
2023/01/21 03:53:17;;;;;;;;;;;;;;;3.80;100.00;98209.81;5123946;28;19924;-61
2023/01/21 03:55:43;;;;;;;;;;;;;;;3.70;100.00;98198.91;5123469;28;19974;-60
2023/01/21 03:58:09;;;;;;;;;;;;;;;3.65;100.00;98200.56;5119860;28;19987;-61
2023/01/21 04:00:36;;;;;;;;;;;;;;;3.81;100.00;98207.97;5120066;28;20018;-61
2023/01/21 04:03:02;;;;;;;;;;;;;;;3.87;100.00;98199.19;5122620;28;19970;-61
2023/01/21 04:05:28;;;;;;;;;;;;;;;3.88;100.00;98200.00;5118748;28;19951;-61
2023/01/21 04:07:55;;;;;;;;;;;;;;;3.84;100.00;98201.47;5119712;28;19979;-61
2023/01/21 04:10:22;;;;;;;;;;;;;;;3.93;100.00;98200.97;5119643;28;19967;-61
2023/01/21 04:12:49;;;;;;;;;;;;;;;3.98;100.00;98192.44;5120318;28;19925;-61
2023/01/21 04:15:15;;;;;;;;;;;;;;;4.08;100.00;98201.50;5123207;28;19923;-61
2023/01/21 04:17:41;;;;;;;;;;;;;;;3.80;100.00;98195.81;5122810;28;19928;-61
2023/01/21 04:20:08;;;;;;;;;;;;;;;3.94;100.00;98202.63;5119460;28;20062;-61
2023/01/21 04:22:35;;;;;;;;;;;;;;;3.94;100.00;98192.03;5119380;28;19963;-61
2023/01/21 04:25:01;;;;;;;;;;;;;;;3.55;100.00;98200.22;5121746;28;19963;-61
2023/01/21 04:27:29;;;;;;;;;;;;;;;3.34;100.00;98198.69;5122730;28;19931;-61
2023/01/21 04:29:55;;;;;;;;;;;;;;;2.86;100.00;98192.97;5120929;28;19959;-61
2023/01/21 04:32:21;;;;;;;;;;;;;;;2.97;100.00;98202.84;5119210;28;19996;-60
2023/01/21 04:34:48;;;;;;;;;;;;;;;2.63;100.00;98208.44;5120817;28;19924;-60
2023/01/21 04:37:14;;;;;;;;;;;;;;;2.66;100.00;98202.75;5114914;28;19924;-61
2023/01/21 04:39:40;;;;;;;;;;;;;;;2.51;100.00;98212.69;5122528;28;19939;-61
2023/01/21 04:42:07;;;;;;;;;;;;;;;2.52;100.00;98216.94;5119160;28;19959;-61
2023/01/21 04:44:34;;;;;;;;;;;;;;;2.27;100.00;98214.13;5118944;28;19924;-61
2023/01/21 04:47:01;;;;;;;;;;;;;;;2.00;100.00;98213.28;5121263;28;19971;-61
2023/01/21 04:49:27;;;;;;;;;;;;;;;1.72;100.00;98215.28;5122531;28;19945;-61
2023/01/21 04:51:53;;;;;;;;;;;;;;;1.69;100.00;98218.31;5120704;28;19924;-60
2023/01/21 04:54:20;;;;;;;;;;;;;;;1.70;100.00;98219.94;5118818;28;19924;-61
2023/01/21 04:56:46;;;;;;;;;;;;;;;1.11;100.00;98221.53;5118993;28;19963;-60
2023/01/21 04:59:13;;;;;;;;;;;;;;;0.68;100.00;98216.41;5122365;28;19935;-60
2023/01/21 05:01:40;;;;;;;;;;;;;;;0.85;100.00;98215.13;5122339;28;19946;-61
2023/01/21 05:04:07;;;;;;;;;;;;;;;0.70;100.00;98232.00;5118777;28;19951;-60
2023/01/21 05:06:33;;;;;;;;;;;;;;;0.42;100.00;98229.38;5111917;28;20406;-60
2023/01/21 05:08:59;;;;;;;;;;;;;;;0.60;100.00;98228.91;5120593;28;19971;-60
2023/01/21 05:11:26;;;;;;;;;;;;;;;0.40;100.00;98226.94;5122199;28;19931;-60
2023/01/21 05:13:52;;;;;;;;;;;;;;;0.49;100.00;98225.81;5120000;28;20004;-60
2023/01/21 05:16:18;;;;;;;;;;;;;;;0.32;100.00;98226.28;5118537;28;20007;-60
2023/01/21 05:18:47;;;;;;;;;;;;;;;0.28;100.00;98225.06;5118637;28;19924;-60
2023/01/21 05:21:13;;;;;;;;;;;;;;;0.28;100.00;98230.31;5122044;28;19924;-60
2023/01/21 05:23:39;;;;;;;;;;;;;;;0.41;100.00;98228.56;5103744;28;19923;-60
2023/01/21 05:26:06;;;;;;;;;;;;;;;0.38;100.00;98228.94;5118643;28;19975;-60
2023/01/21 05:28:32;;;;;;;;;;;;;;;0.38;100.00;98228.13;5118420;28;19967;-60
2023/01/21 05:31:02;;;;;;;;;;;;;;;0.75;100.00;98219.91;5120522;28;19932;-60
2023/01/21 05:33:29;;;;;;;;;;;;;;;0.84;100.00;98210.03;5121977;28;20522;-60
2023/01/21 05:35:57;;;;;;;;;;;;;;;1.10;100.00;98223.34;5113328;28;19920;-60
2023/01/21 05:38:23;;;;;;;;;;;;;;;1.29;100.00;98227.06;5118503;28;19924;-60
2023/01/21 05:40:50;;;;;;;;;;;;;;;1.71;100.00;98216.28;5119251;28;19991;-60
2023/01/21 05:43:16;;;;;;;;;;;;;;;1.48;100.00;98221.09;5121721;28;19931;-60
2023/01/21 05:45:42;;;;;;;;;;;;;;;1.70;100.00;98213.84;5121613;28;19931;-60
2023/01/21 05:48:09;;;;;;;;;;;;;;;2.20;100.00;98213.28;5109976;28;19983;-60
2023/01/21 05:50:37;;;;;;;;;;;;;;;1.65;100.00;98217.06;5109888;28;20000;-60
2023/01/21 05:53:05;;;;;;;;;;;;;;;1.98;100.00;98217.94;5109664;28;19928;-60
2023/01/21 05:55:31;;;;;;;;;;;;;;;2.34;100.00;98217.56;5109574;28;19955;-60
2023/01/21 05:57:57;;;;;;;;;;;;;;;1.89;100.00;98218.34;5109441;28;19966;-61
2023/01/21 06:00:24;;;;;;;;;;;;;;;2.11;100.00;98215.31;5109718;28;19987;-60
2023/01/21 06:02:50;;;;;;;;;;;;;;;2.30;100.00;98212.88;5109490;28;19970;-60
2023/01/21 06:05:16;;;;;;;;;;;;;;;2.68;100.00;98219.16;5111570;28;19979;-60
2023/01/21 06:07:43;;;;;;;;;;;;;;;2.78;100.00;98221.38;5117754;28;19923;-60
2023/01/21 06:10:11;;;;;;;;;;;;;;;2.83;100.00;98221.56;5109272;28;19988;-60
2023/01/21 06:12:37;;;;;;;;;;;;;;;2.89;100.00;98213.63;5109467;28;19924;-61
2023/01/21 06:15:04;;;;;;;;;;;;;;;2.77;100.00;98227.66;5109462;28;19935;-61
2023/01/21 06:17:30;;;;;;;;;;;;;;;2.80;100.00;98225.44;5109551;28;19958;-61
2023/01/21 06:19:57;;;;;;;;;;;;;;;2.90;100.00;98230.28;5109439;28;19983;-61
2023/01/21 06:22:23;;;;;;;;;;;;;;;3.13;100.00;98233.25;5109473;28;19960;-61
2023/01/21 06:24:49;;;;;;;;;;;;;;;3.25;100.00;98232.41;5109460;28;20427;-61
2023/01/21 06:27:17;;;;;;;;;;;;;;;3.37;100.00;98221.22;5113289;28;20028;-61
2023/01/21 06:29:43;;;;;;;;;;;;;;;3.29;100.00;98230.16;5113356;28;19976;-61
2023/01/21 06:32:10;;;;;;;;;;;;;;;3.37;100.00;98239.69;5113308;28;20431;-61
2023/01/21 06:34:36;;;;;;;;;;;;;;;3.49;100.00;98223.00;5120481;28;20025;-61
2023/01/21 06:37:02;;;;;;;;;;;;;;;3.22;100.00;98235.47;5116606;28;19960;-59
2023/01/21 06:39:29;;;;;;;;;;;;;;;3.25;100.00;98240.31;5125068;28;19920;-60
2023/01/21 06:41:55;;;;;;;;;;;;;;;2.91;100.00;98237.97;5123077;28;20604;-60
2023/01/21 06:44:23;;;;;;;;;;;;;;;3.13;100.00;98243.81;5121233;28;20020;-60
2023/01/21 06:46:49;;;;;;;;;;;;;;;3.00;100.00;98244.66;5121957;28;19924;-60
2023/01/21 06:49:16;;;;;;;;;;;;;;;2.96;100.00;98235.56;5124742;28;19987;-60
2023/01/21 06:51:42;;;;;;;;;;;;;;;2.63;100.00;98245.34;5124506;28;19928;-60
2023/01/21 06:54:09;;;;;;;;;;;;;;;2.29;100.00;98242.91;5112777;28;20505;-60
2023/01/21 06:56:36;;;;;;;;;;;;;;;2.30;100.00;98247.97;5112491;28;20379;-60
2023/01/21 06:59:02;;;;;;;;;;;;;;;2.20;100.00;98249.41;5112648;28;19978;-60
2023/01/21 07:01:30;;;;;;;;;;;;;;;2.02;100.00;98248.13;5112634;28;19935;-60
2023/01/21 07:03:56;;;;;;;;;;;;;;;2.28;100.00;98250.00;5112680;28;19947;-61
2023/01/21 07:06:22;;;;;;;;;;;;;;;2.36;100.00;98254.25;5124990;27;19967;-60
2023/01/21 07:08:49;;;;;;;;;;;;;;;2.53;100.00;98258.94;5121713;28;19939;-60
2023/01/21 07:11:15;;;;;;;;;;;;;;;2.36;100.00;98255.06;5124431;28;20015;-60
2023/01/21 07:13:42;;;;;;;;;;;;;;;2.55;100.00;98256.09;5124440;28;19928;-61
2023/01/21 07:16:08;;;;;;;;;;;;;;;2.14;100.00;98249.16;5120823;28;19924;-60
2023/01/21 07:18:36;;;;;;;;;;;;;;;2.48;100.00;98255.25;5102864;28;19924;-61
2023/01/21 07:21:02;;;;;;;;;;;;;;;2.57;100.00;98252.22;5123409;28;19932;-60
2023/01/21 07:23:29;;;;;;;;;;;;;;;2.43;100.00;98263.78;5124350;28;19955;-61
2023/01/21 07:25:55;;;;;;;;;;;;;;;2.55;100.00;98266.63;5122508;28;19939;-60
2023/01/21 07:28:22;;;;;;;;;;;;;;;2.49;100.00;98270.06;5120788;28;20396;-61
2023/01/21 07:30:48;;;;;;;;;;;;;;;2.43;100.00;98273.53;5120733;28;19924;-61
2023/01/21 07:33:15;;;;;;;;;;;;;;;2.41;100.00;98275.56;5123952;28;19923;-60
2023/01/21 07:35:42;;;;;;;;;;;;;;;2.62;100.00;98268.25;5128267;27;19964;-61
2023/01/21 07:38:09;;;;;;;;;;;;;;;2.98;100.00;98278.34;5111662;28;19960;-61
2023/01/21 07:40:35;;;;;;;;;;;;;;;2.95;100.00;98283.22;5112056;28;19924;-60
2023/01/21 07:43:01;;;;;;;;;;;;;;;2.83;100.00;98282.22;5094034;28;19931;-61
2023/01/21 07:45:28;;;;;;;;;;;;;;;3.00;100.00;98286.09;5111977;28;19935;-61
2023/01/21 07:47:54;;;;;;;;;;;;;;;3.19;100.00;98286.03;5111776;28;19920;-61
2023/01/21 07:50:21;;;;;;;;;;;;;;;3.26;100.00;98292.09;5111916;28;19920;-60
2023/01/21 07:52:48;;;;;;;;;;;;;;;3.16;100.00;98286.44;5111770;28;19924;-61
2023/01/21 07:55:15;;;;;;;;;;;;;;;3.32;100.00;98287.00;5111735;28;19936;-61
2023/01/21 07:57:41;;;;;;;;;;;;;;;3.12;100.00;98295.81;5111628;28;19935;-61
2023/01/21 08:00:08;;;;;;;;;;;;;;;3.14;100.00;98299.03;5111695;28;19956;-61
2023/01/21 08:02:34;;;;;;;;;;;;;;;3.04;100.00;98296.00;5111562;28;19924;-60
2023/01/21 08:05:01;;;;;;;;;;;;;;;3.17;100.00;98298.63;5117945;27;20383;-61
2023/01/21 08:07:27;;;;;;;;;;;;;;;3.39;100.00;98288.63;5123742;28;19946;-61
2023/01/21 08:09:55;;;;;;;;;;;;;;;3.38;100.00;98288.81;5121972;28;19966;-60
2023/01/21 08:12:21;;;;;;;;;;;;;;;3.43;100.00;98289.84;5120035;28;19924;-61
2023/01/21 08:14:47;;;;;;;;;;;;;;;3.46;100.00;98297.34;5120289;28;19979;-61
2023/01/21 08:17:14;;;;;;;;;;;;;;;3.13;100.00;98307.16;5123489;28;19995;-61
2023/01/21 08:19:40;;;;;;;;;;;;;;;2.79;100.00;98296.81;5123655;28;19994;-61
2023/01/21 08:22:06;;;;;;;;;;;;;;;2.99;100.00;98297.63;5120330;28;19963;-61
2023/01/21 08:24:33;;;;;;;;;;;;;;;2.75;100.00;98300.91;5119874;28;19966;-61
2023/01/21 08:27:01;;;;;;;;;;;;;;;2.12;100.00;98300.44;5121892;28;19950;-61
2023/01/21 08:29:27;;;;;;;;;;;;;;;2.13;100.00;98302.88;5123415;28;19955;-61
2023/01/21 08:31:53;;;;;;;;;;;;;;;1.85;100.00;98307.47;5121823;28;19947;-61
2023/01/21 08:34:20;;;;;;;;;;;;;;;1.94;100.00;98308.91;5119664;28;19924;-61
2023/01/21 08:36:46;;;;;;;;;;;;;;;1.63;100.00;98312.03;5123945;27;19955;-61
2023/01/21 08:39:14;;;;;;;;;;;;;;;2.30;100.00;98310.41;5123004;28;19923;-61
2023/01/21 08:41:40;;;;;;;;;;;;;;;2.48;100.00;98307.97;5123078;28;20332;-61
2023/01/21 08:44:08;;;;;;;;;;;;;;;2.13;100.00;98313.44;5119539;28;19931;-61
2023/01/21 08:46:34;;;;;;;;;;;;;;;2.18;100.00;98315.44;5101401;28;19963;-62
2023/01/21 08:49:00;;;;;;;;;;;;;;;2.12;100.00;98319.69;5120812;28;19952;-62
2023/01/21 08:51:27;;;;;;;;;;;;;;;2.03;100.00;98318.25;5123006;28;19951;-65
2023/01/21 08:53:53;;;;;;;;;;;;;;;1.71;100.00;98318.94;5121329;28;20535;-61
2023/01/21 08:56:19;;;;;;;;;;;;;;;1.98;100.00;98317.25;5119135;28;19959;-61
2023/01/21 08:58:46;;;;;;;;;;;;;;;1.81;100.00;98321.22;5119324;28;19979;-61
2023/01/21 09:01:15;;;;;;;;;;;;;;;1.59;100.00;98317.88;5123078;28;19975;-61
2023/01/21 09:03:41;;;;;;;;;;;;;;;1.39;100.00;98319.63;5122695;28;19923;-61
2023/01/21 09:06:08;;;;;;;;;;;;;;;1.28;100.00;98317.53;5123316;27;19959;-59
2023/01/21 09:08:35;;;;;;;;;;;;;;;1.94;100.00;98310.72;5119179;28;19928;-60
2023/01/21 09:11:02;;;;;;;;;;;;;;;1.98;100.00;98323.28;5121458;28;19964;-60
2023/01/21 09:13:29;;;;;;;;;;;;;;;1.49;100.00;98318.25;5122607;28;19958;-60
2023/01/21 09:15:55;;;;;;;;;;;;;;;1.53;100.00;98324.75;5120766;28;19958;-60
2023/01/21 09:18:23;;;;;;;;;;;;;;;1.72;100.00;98325.03;5119024;28;19924;-60
2023/01/21 09:20:49;;;;;;;;;;;;;;;1.46;100.00;98333.59;5119702;28;19924;-61
2023/01/21 09:23:24;;;;;;;;;;;;;;;1.77;100.00;98331.31;5122586;28;19924;-60
2023/01/21 09:25:51;;;;;;;;;;;;;;;1.99;100.00;98332.00;5121265;28;19919;-60
2023/01/21 09:28:18;;;;;;;;;;;;;;;1.78;100.00;98337.41;5119082;28;19925;-60
2023/01/21 09:30:44;;;;;;;;;;;;;;;1.91;100.00;98333.00;5118852;28;19932;-61
2023/01/21 09:33:11;;;;;;;;;;;;;;;1.78;100.00;98330.31;5122450;28;20010;-61
2023/01/21 09:35:38;;;;;;;;;;;;;;;2.03;100.00;98336.69;5126404;28;19931;-61
2023/01/21 09:38:05;;;;;;;;;;;;;;;1.87;100.00;98331.78;5119180;28;19984;-61
2023/01/21 09:40:31;;;;;;;;;;;;;;;1.81;100.00;98334.38;5118772;28;19991;-61
2023/01/21 09:43:01;;;;;;;;;;;;;;;1.91;100.00;98342.72;5120760;28;19924;-62
2023/01/21 09:45:27;;;;;;;;;;;;;;;1.97;100.00;98326.13;5122544;28;20010;-61
2023/01/21 09:47:55;;;;;;;;;;;;;;;2.06;100.00;98330.22;5120525;28;19935;-61
2023/01/21 09:50:22;;;;;;;;;;;;;;;1.74;100.00;98337.00;5118694;28;20016;-61
2023/01/21 09:52:51;;;;;;;;;;;;;;;2.01;100.00;98330.00;5119257;28;19924;-61
2023/01/21 09:55:19;;;;;;;;;;;;;;;1.72;100.00;98331.13;5122114;28;19928;-62
2023/01/21 09:58:01;;;;;;;;;;;;;;;1.93;100.00;98335.44;5121656;28;20015;-62
2023/01/21 10:00:31;;;;;;;;;;;;;;;2.32;100.00;98334.75;5120115;28;19924;-61
2023/01/21 10:03:00;;;;;;;;;;;;;;;2.11;100.00;98346.22;5124558;28;19987;-60
2023/01/21 10:05:43;;;;;;;;;;;;;;;1.69;100.00;98334.13;5112262;28;19934;-61
2023/01/21 10:08:15;;;;;;;;;;;;;;;2.07;100.00;98343.19;5113997;28;20019;-61
2023/01/21 10:10:46;;;;;;;;;;;;;;;2.03;100.00;98347.25;5113563;28;19955;-61
2023/01/21 10:13:27;;;;;;;;;;;;;;;1.89;100.00;98350.81;5117930;28;19920;-61
2023/01/21 10:16:00;;;;;;;;;;;;;;;1.84;100.00;98347.16;5124152;28;19927;-61
2023/01/21 10:18:27;;;;;;;;;;;;;;;2.00;100.00;98345.00;5122127;28;19924;-61
2023/01/21 10:20:56;;;;;;;;;;;;;;;1.88;100.00;98351.84;5123169;28;19963;-61
2023/01/21 10:23:27;;;;;;;;;;;;;;;1.40;100.00;98347.53;5125322;28;20019;-60
2023/01/21 10:25:54;;;;;;;;;;;;;;;1.48;100.00;98347.41;5123997;28;19923;-60
2023/01/21 10:28:22;;;;;;;;;;;;;;;1.29;100.00;98342.84;5121866;28;20334;-60
2023/01/21 10:30:52;;;;;;;;;;;;;;;1.36;100.00;98338.44;5122141;28;19930;-61
2023/01/21 10:33:20;;;;;;;;;;;;;;;1.65;100.00;98338.16;5125139;28;19932;-61
2023/01/21 10:35:54;;;;;;;;;;;;;;;1.65;100.00;98338.16;5129015;27;19949;-61
2023/01/21 10:38:27;;;;;;;;;;;;;;;1.49;100.00;98338.47;5121648;28;19924;-61
2023/01/21 10:40:58;;;;;;;;;;;;;;;1.81;100.00;98335.19;5122644;28;19959;-60
2023/01/21 10:43:30;;;;;;;;;;;;;;;1.76;100.00;98329.72;5125023;28;19991;-60
2023/01/21 10:46:03;;;;;;;;;;;;;;;1.69;100.00;98326.25;5122968;28;19924;-60
2023/01/21 10:48:36;;;;;;;;;;;;;;;1.47;100.00;98316.81;5121347;28;19924;-60
2023/01/21 10:51:09;;;;;;;;;;;;;;;1.36;100.00;98317.38;5123893;28;19955;-60
2023/01/21 10:53:39;;;;;;;;;;;;;;;1.62;100.00;98320.13;5124861;28;19928;-60
2023/01/21 10:56:13;;;;;;;;;;;;;;;1.73;100.00;98319.59;5121332;28;19956;-60
2023/01/21 10:58:42;;;;;;;;;;;;;;;1.91;100.00;98316.41;5120945;28;19924;-60
2023/01/21 11:01:15;;;;;;;;;;;;;;;1.67;100.00;98315.09;5124689;28;19975;-61
2023/01/21 11:03:43;;;;;;;;;;;;;;;1.83;100.00;98317.38;5106391;28;19984;-61
2023/01/21 11:06:11;;;;;;;;;;;;;;;2.11;100.00;98317.25;5125172;27;19920;-62
2023/01/21 11:08:38;;;;;;;;;;;;;;;1.97;100.00;98323.50;5121163;28;19959;-61
2023/01/21 11:11:05;;;;;;;;;;;;;;;2.05;100.00;98318.88;5123803;28;19949;-61
2023/01/21 11:13:33;;;;;;;;;;;;;;;2.03;100.00;98314.81;5123525;28;19935;-62
2023/01/21 11:15:59;;;;;;;;;;;;;;;2.21;100.00;98316.88;5122405;28;19959;-62
2023/01/21 11:18:27;;;;;;;;;;;;;;;1.74;100.00;98317.72;5120976;28;20043;-61
2023/01/21 11:20:55;;;;;;;;;;;;;;;1.58;100.00;98322.34;5122286;28;19954;-61
2023/01/21 11:23:26;;;;;;;;;;;;;;;1.75;100.00;98325.47;5124385;28;19974;-61
2023/01/21 11:26:00;;;;;;;;;;;;;;;1.56;100.00;98310.38;5122986;28;19934;-61
2023/01/21 11:28:28;;;;;;;;;;;;;;;1.41;100.00;98313.16;5120727;28;19950;-60
2023/01/21 11:31:04;;;;;;;;;;;;;;;1.52;100.00;98314.41;5121933;28;19939;-60
2023/01/21 11:33:31;;;;;;;;;;;;;;;1.43;100.00;98313.75;5123977;28;19923;-60
2023/01/21 11:36:08;;;;;;;;;;;;;;;1.48;100.00;98305.28;5126287;27;19924;-61
2023/01/21 11:38:35;;;;;;;;;;;;;;;1.55;100.00;98308.75;5120517;28;19987;-61
2023/01/21 11:41:03;;;;;;;;;;;;;;;1.57;100.00;98297.03;5122944;28;19959;-61
2023/01/21 11:43:33;;;;;;;;;;;;;;;1.52;100.00;98301.25;5123741;28;20399;-61
2023/01/21 11:46:00;;;;;;;;;;;;;;;1.49;100.00;98299.81;5121430;28;20030;-61
2023/01/21 11:48:27;;;;;;;;;;;;;;;1.87;100.00;98294.09;5120511;28;19920;-61
2023/01/21 11:51:05;;;;;;;;;;;;;;;1.88;100.00;98296.53;5121685;28;19964;-61
2023/01/21 11:53:31;;;;;;;;;;;;;;;1.94;100.00;98287.84;5123940;28;19931;-60
2023/01/21 11:55:58;;;;;;;;;;;;;;;1.92;100.00;98291.69;5121600;28;19955;-60
2023/01/21 11:58:26;;;;;;;;;;;;;;;1.64;100.00;98291.78;5119931;28;19935;-60
2023/01/21 12:00:54;;;;;;;;;;;;;;;1.59;100.00;98294.19;5121199;28;19973;-60
2023/01/21 12:03:21;;;;;;;;;;;;;;;1.65;100.00;98280.25;5123472;28;19924;-61
2023/01/21 12:05:50;;;;;;;;;;;;;;;1.48;100.00;98279.78;5108761;28;19924;-60
2023/01/21 12:08:20;;;;;;;;;;;;;;;1.62;100.00;98291.16;5119257;28;19931;-60
2023/01/21 12:10:47;;;;;;;;;;;;;;;1.43;100.00;98284.00;5119569;28;19924;-60
2023/01/21 12:13:18;;;;;;;;;;;;;;;1.31;100.00;98285.56;5104756;28;19930;-59
2023/01/21 12:16:16;;;;;;;;;;;;;;;1.19;100.00;98277.41;5122834;28;19934;-60
2023/01/21 12:18:52;;;;;;;;;;;;;;;1.31;100.00;98280.31;5119731;28;19935;-59
2023/01/21 12:21:25;;;;;;;;;;;;;;;1.69;100.00;98285.94;5110998;28;19963;-60
2023/01/21 12:23:58;;;;;;;;;;;;;;;1.34;100.00;98270.19;5110681;28;19936;-60
2023/01/21 12:26:40;;;;;;;;;;;;;;;1.42;100.00;98263.97;5111210;28;20050;-59
2023/01/21 12:29:11;;;;;;;;;;;;;;;1.33;100.00;98268.56;5110871;28;19924;-59
2023/01/21 12:31:41;;;;;;;;;;;;;;;1.61;100.00;98257.94;5110946;28;19959;-60
2023/01/21 12:34:11;;;;;;;;;;;;;;;1.57;100.00;98268.09;5110834;28;19950;-59
2023/01/21 12:36:42;;;;;;;;;;;;;;;1.42;100.00;98266.59;5123489;27;19924;-60
2023/01/21 12:39:13;;;;;;;;;;;;;;;1.27;100.00;98263.28;5122723;28;19987;-60
2023/01/21 12:41:42;;;;;;;;;;;;;;;1.31;100.00;98260.06;5122916;28;19959;-60
2023/01/21 12:44:17;;;;;;;;;;;;;;;1.40;100.00;98260.72;5119490;28;19923;-61
2023/01/21 12:46:47;;;;;;;;;;;;;;;1.29;100.00;98259.47;5119213;28;19925;-61
2023/01/21 12:49:17;;;;;;;;;;;;;;;1.20;100.00;98260.63;5101252;28;19977;-60
2023/01/21 12:51:46;;;;;;;;;;;;;;;1.48;100.00;98257.94;5101222;28;19928;-60
2023/01/21 12:54:16;;;;;;;;;;;;;;;1.24;100.00;98255.81;5110781;28;20434;-60
2023/01/21 12:56:44;;;;;;;;;;;;;;;1.31;100.00;98254.81;5092611;28;19942;-61